TAF Text Data
IDs:
Format:
Raw Decoded Include METAR

Data at: 0227 UTC 23 Sep 2018

KPUB 230153Z 12006KT 10SM CLR 24/M01 A3003 RMK AO2 SLP119 T02441006

KPUB 222335Z 2300/2324 11012KT P6SM FEW110
  FM230200 09007KT P6SM SKC
  FM230500 02006KT P6SM SKC
  FM230800 30005KT P6SM SKC
  FM231400 VRB04KT P6SM SKC
  FM232000 15007KT P6SM SKC